Gardner, KS

7:11 AM CDT on August 31, 2015 (GMT -0500)
Willow Springs | | Change Station
CLOSE
Current Station
Personal Weather Station
Location: Gardner, KS
Elevation: 1089 ft
Nearby Weather Stations

Elev 1089 ft 38.80 °N, 94.91 °W | Updated 1 minute ago

Clear
Clear
69.6 °F
Feels Like 69.6 °F
N
0.0
Wind Variable Wind from North
Gusts 2.0 mph

Today
High -- | Low -- °F
--% Chance of Precip.
Yesterday
High -- | Low -- °F
Precip. -- in
6:47 AM 7:51 PM
Waning Gibbous, 95% visible
Pressure 29.96 in
Visibility 2.5 miles
Clouds Clear
Dew Point 69 °F
Humidity 99%
Rainfall 0.00 in
Snow Depth Not available.
UV 0 out of 12
Pollen 9.90 out of 12
Air Quality Not available.
Flu Activity Not available.
METAR KIXD 311153Z 16005KT 2 1/2SM BR CLR 21/21 A2999 RMK AO2 SLP143 T02060206 10228 20206 51007 $
Pressure 29.96 in
Visibility 2.5 miles
Clouds Clear
Dew Point 69 °F
Humidity 99%
Rainfall 0.00 in
Snow Depth Not available.
UV 0 out of 12
Pollen 9.90 out of 12
Air Quality Not available.
Flu Activity Not available.
METAR KIXD 311153Z 16005KT 2 1/2SM BR CLR 21/21 A2999 RMK AO2 SLP143 T02060206 10228 20206 51007 $

10-Day Weather Forecast

×

Almanac

Astronomy

Aug. 31, 2015 Rise Set
Actual Time
Civil Twilight
Nautical Twilight
Astronomical Twilight
Moon
Length of Visible Light
Length of Day
Tomorrow will be .
, % of the Moon is Illuminated

Today's Extremes

State Highs State Lows

Community

WunderPhotos

Upload Photos

1,851,222 photos uploaded!

WunderBlogs® & News

Nearby

Air Quality

  Air Quality AQ Index Pollutant
Not available.

Snow Depth

Station Depth Elevation

Earthquake Activity

City Distance Mag. Time & Date
Minimum magnitude displayed is 2.5.

Coastal Water Temperatures

Place Temperature

Stations

Nearby Weather Stations

Station Location Temp. Windchill Dew Point Humidity Wind Precip. Elev Updated Type